Time;durP1;ratioP1;P1;durP2;ratioP2;P2;SDS_P1;SDS_P2;PMS_P1;PMS_P2;Temp;Humidity;BMP_temperature;BMP_pressure;BME280_temperature;BME280_humidity;BME280_pressure;Samples;Min_cycle;Max_cycle;Signal;HPM_P1;HPM_P2
2023/06/05 00:01:39;;;;;;;1.88;0.90;;;11.30;99.90;;;;;;5074764;28;20404;-84
2023/06/05 00:04:05;;;;;;;1.65;1.00;;;11.20;99.90;;;;;;5091956;28;20196;-84
2023/06/05 00:06:31;;;;;;;2.17;1.10;;;11.40;99.90;;;;;;5092270;28;20048;-84
2023/06/05 00:08:57;;;;;;;1.85;1.02;;;11.40;99.90;;;;;;5070677;28;20500;-84
2023/06/05 00:11:23;;;;;;;2.50;1.00;;;11.40;99.90;;;;;;5076880;28;20047;-84
2023/06/05 00:13:49;;;;;;;1.90;1.10;;;11.30;99.90;;;;;;5092440;28;20056;-85
2023/06/05 00:16:17;;;;;;;2.78;1.15;;;11.30;99.90;;;;;;5092583;28;20063;-84
2023/06/05 00:18:45;;;;;;;2.55;1.58;;;11.50;99.90;;;;;;5092535;28;20040;-84
2023/06/05 00:21:13;;;;;;;1.67;1.00;;;11.50;99.90;;;;;;5092407;28;20036;-84
2023/06/05 00:23:39;;;;;;;2.95;1.20;;;11.50;99.90;;;;;;5074189;28;20054;-84
2023/06/05 00:26:05;;;;;;;1.95;1.10;;;11.50;99.90;;;;;;5088108;28;20037;-84
2023/06/05 00:28:30;;;;;;;1.00;0.80;;;11.50;99.90;;;;;;5091269;28;20499;-85
2023/06/05 00:30:56;;;;;;;2.08;1.17;;;11.60;99.90;;;;;;5074349;28;20558;-84
2023/06/05 00:33:21;;;;;;;3.88;1.67;;;11.80;99.90;;;;;;5090522;28;20139;-84
2023/06/05 00:35:47;;;;;;;4.35;1.48;;;11.60;99.90;;;;;;5074191;28;20071;-83
2023/06/05 00:38:13;;;;;;;2.33;1.27;;;11.60;99.90;;;;;;5073608;28;20056;-84
2023/06/05 00:40:38;;;;;;;1.48;1.10;;;11.50;99.90;;;;;;5092467;28;20047;-84
2023/06/05 00:43:05;;;;;;;3.88;1.63;;;11.60;99.90;;;;;;5092355;28;20493;-84
2023/06/05 00:45:31;;;;;;;2.42;1.20;;;11.50;99.90;;;;;;5092267;28;20051;-84
2023/06/05 00:47:58;;;;;;;3.40;1.33;;;11.50;99.90;;;;;;5091589;28;20066;-82
2023/06/05 00:50:24;;;;;;;1.52;1.00;;;11.60;99.90;;;;;;5074223;28;20446;-83
2023/06/05 00:52:51;;;;;;;1.85;1.20;;;11.50;99.90;;;;;;5062195;28;20099;-83
2023/06/05 00:55:17;;;;;;;2.28;1.08;;;11.50;99.90;;;;;;5072032;28;20102;-83
2023/06/05 00:57:44;;;;;;;3.58;1.40;;;11.50;99.90;;;;;;5071992;28;20112;-83
2023/06/05 01:00:12;;;;;;;1.95;1.30;;;11.60;99.90;;;;;;5071871;28;20045;-83
2023/06/05 01:02:39;;;;;;;2.33;1.48;;;11.60;99.90;;;;;;5071927;28;20051;-83
2023/06/05 01:05:05;;;;;;;2.90;1.45;;;11.70;99.90;;;;;;5072864;28;20037;-83
2023/06/05 01:07:38;;;;;;;2.65;1.45;;;11.60;99.90;;;;;;5066060;28;20062;-83
2023/06/05 01:10:05;;;;;;;2.60;1.40;;;11.60;99.90;;;;;;5072269;28;20048;-83
2023/06/05 01:12:40;;;;;;;2.13;1.13;;;11.60;99.90;;;;;;5087265;28;20071;-83
2023/06/05 01:15:07;;;;;;;4.50;1.75;;;11.60;99.90;;;;;;5093667;28;20125;-83
2023/06/05 01:17:34;;;;;;;4.03;1.85;;;11.60;99.90;;;;;;5077333;28;20067;-83
2023/06/05 01:20:03;;;;;;;2.53;1.52;;;11.60;99.90;;;;;;5095610;28;20047;-83
2023/06/05 01:22:28;;;;;;;2.22;1.40;;;11.60;99.90;;;;;;5095660;28;20043;-83
2023/06/05 01:24:54;;;;;;;3.60;1.45;;;11.60;99.90;;;;;;5095342;28;20089;-83
2023/06/05 01:27:37;;;;;;;3.35;1.20;;;11.60;99.90;;;;;;5086570;28;20561;-83
2023/06/05 01:30:24;;;;;;;1.92;1.02;;;11.60;99.90;;;;;;5075212;28;20118;-83
2023/06/05 01:33:02;;;;;;;1.38;0.82;;;11.90;99.90;;;;;;5086704;28;20117;-83
2023/06/05 01:35:32;;;;;;;1.92;1.13;;;11.60;99.90;;;;;;5095562;28;20105;-83
2023/06/05 01:38:01;;;;;;;1.33;0.82;;;11.60;99.90;;;;;;5095537;28;20032;-83
2023/06/05 01:40:29;;;;;;;2.60;1.10;;;11.50;99.90;;;;;;5077424;28;20051;-83
2023/06/05 01:42:56;;;;;;;3.05;1.20;;;11.90;99.90;;;;;;5075429;28;20044;-83
2023/06/05 01:45:22;;;;;;;2.00;1.15;;;11.70;99.90;;;;;;5087556;28;21831;-85
2023/06/05 01:47:50;;;;;;;2.42;1.25;;;11.60;99.90;;;;;;5074858;28;20132;-84
2023/06/05 01:50:18;;;;;;;2.10;1.02;;;11.50;99.90;;;;;;5075043;28;20109;-85
2023/06/05 01:52:46;;;;;;;2.53;1.23;;;12.10;99.90;;;;;;5075589;28;20048;-85
2023/06/05 01:55:23;;;;;;;2.30;0.90;;;11.70;99.90;;;;;;5074651;28;20044;-85
2023/06/05 01:57:50;;;;;;;1.77;1.05;;;11.70;99.90;;;;;;5074269;28;20565;-85
2023/06/05 02:00:17;;;;;;;1.40;0.90;;;11.70;99.90;;;;;;5078100;28;20092;-84
2023/06/05 02:02:44;;;;;;;1.80;0.80;;;11.70;99.90;;;;;;5093683;28;20486;-84
2023/06/05 02:05:12;;;;;;;1.85;0.90;;;11.80;99.90;;;;;;5057801;28;20501;-85
2023/06/05 02:07:41;;;;;;;2.25;0.70;;;11.70;99.90;;;;;;5074306;28;20127;-84
2023/06/05 02:10:08;;;;;;;0.90;0.80;;;11.50;99.90;;;;;;5074206;28;20045;-85
2023/06/05 02:12:35;;;;;;;2.28;1.00;;;11.70;99.90;;;;;;5074169;28;20036;-84
2023/06/05 02:15:01;;;;;;;2.45;0.90;;;12.00;99.90;;;;;;5074323;28;20049;-83
2023/06/05 02:17:27;;;;;;;2.75;0.90;;;11.80;99.90;;;;;;5093889;28;20040;-84
2023/06/05 02:19:52;;;;;;;1.92;1.20;;;11.80;99.90;;;;;;5084542;28;20044;-85
2023/06/05 02:22:19;;;;;;;3.10;1.55;;;12.00;99.90;;;;;;5074018;28;20048;-84
2023/06/05 02:24:44;;;;;;;2.25;1.38;;;11.80;99.90;;;;;;5073981;28;20045;-83
2023/06/05 02:27:12;;;;;;;1.65;1.20;;;11.80;99.90;;;;;;5073882;28;20136;-84
2023/06/05 02:29:37;;;;;;;2.00;1.35;;;11.60;99.90;;;;;;5074765;28;20040;-84
2023/06/05 02:32:05;;;;;;;1.67;0.82;;;11.80;99.90;;;;;;5092340;28;20523;-84
2023/06/05 02:34:32;;;;;;;1.83;1.17;;;11.80;99.90;;;;;;5094160;28;20446;-84
2023/06/05 02:37:01;;;;;;;4.32;1.05;;;11.80;99.90;;;;;;5093781;28;20080;-85
2023/06/05 02:39:26;;;;;;;1.88;0.90;;;11.70;99.90;;;;;;5094054;28;20393;-85
2023/06/05 02:41:55;;;;;;;1.25;0.77;;;11.80;99.90;;;;;;5092912;28;20099;-84
2023/06/05 02:44:22;;;;;;;1.52;1.00;;;11.80;99.90;;;;;;5093861;28;20579;-84
2023/06/05 02:46:48;;;;;;;2.10;1.10;;;11.80;99.90;;;;;;5075745;28;20040;-84
2023/06/05 02:49:14;;;;;;;3.50;1.05;;;11.80;99.90;;;;;;5094017;28;20477;-84
2023/06/05 02:51:39;;;;;;;2.10;1.27;;;11.90;99.90;;;;;;5093051;28;20040;-85
2023/06/05 02:54:05;;;;;;;2.03;1.30;;;11.70;99.90;;;;;;5093649;28;20400;-84
2023/06/05 02:56:31;;;;;;;1.38;0.77;;;11.90;99.90;;;;;;5093565;28;20055;-84
2023/06/05 02:58:56;;;;;;;1.83;1.10;;;11.70;99.90;;;;;;5093501;28;20127;-84
2023/06/05 03:01:25;;;;;;;2.08;1.05;;;11.60;99.90;;;;;;5093072;28;20047;-84
2023/06/05 03:03:52;;;;;;;2.05;1.00;;;11.70;99.90;;;;;;5093570;28;20407;-85
2023/06/05 03:06:18;;;;;;;3.33;0.90;;;11.70;99.90;;;;;;5091010;28;20058;-84
2023/06/05 03:08:44;;;;;;;1.58;0.88;;;11.70;99.90;;;;;;5093368;28;20408;-84
2023/06/05 03:11:10;;;;;;;1.88;1.15;;;11.60;99.90;;;;;;5093398;28;20447;-85
2023/06/05 03:13:36;;;;;;;1.50;0.98;;;11.70;99.90;;;;;;5093140;28;20040;-84
2023/06/05 03:16:02;;;;;;;1.10;0.90;;;11.60;99.90;;;;;;5075006;28;20108;-83
2023/06/05 03:18:28;;;;;;;1.30;1.00;;;11.60;99.90;;;;;;5074369;28;20472;-84
2023/06/05 03:20:55;;;;;;;2.15;1.10;;;11.60;99.90;;;;;;5093395;28;20036;-84
2023/06/05 03:23:25;;;;;;;1.05;0.70;;;11.50;99.90;;;;;;5093224;28;20485;-85
2023/06/05 03:25:51;;;;;;;1.38;1.00;;;11.70;99.90;;;;;;5092275;28;20563;-84
2023/06/05 03:28:18;;;;;;;1.85;1.00;;;11.70;99.90;;;;;;5092823;28;20098;-84
2023/06/05 03:30:45;;;;;;;3.05;1.00;;;11.70;99.90;;;;;;5092461;28;20047;-84
2023/06/05 03:33:11;;;;;;;1.10;0.80;;;11.60;99.90;;;;;;5074468;28;20043;-84
2023/06/05 03:35:36;;;;;;;1.25;0.90;;;12.00;99.90;;;;;;5092338;28;20107;-83
2023/06/05 03:38:03;;;;;;;2.10;1.05;;;11.60;99.90;;;;;;5075341;28;20062;-83
2023/06/05 03:40:29;;;;;;;2.95;1.00;;;11.60;99.90;;;;;;5091860;28;20040;-85
2023/06/05 03:42:55;;;;;;;2.30;1.27;;;11.40;99.90;;;;;;5092724;28;20048;-84
2023/06/05 03:45:22;;;;;;;2.20;1.00;;;11.60;99.90;;;;;;5093104;28;20059;-83
2023/06/05 03:48:09;;;;;;;1.80;0.93;;;11.60;99.90;;;;;;5092960;28;20077;-84
2023/06/05 03:50:37;;;;;;;1.48;0.75;;;11.70;99.90;;;;;;5061660;28;20385;-83
2023/06/05 03:53:03;;;;;;;1.85;1.00;;;11.50;99.90;;;;;;5092590;28;20047;-83
2023/06/05 03:55:44;;;;;;;1.17;0.70;;;11.60;99.90;;;;;;5073958;28;20040;-84
2023/06/05 03:58:16;;;;;;;1.08;0.70;;;11.60;99.90;;;;;;5072398;28;20048;-83
2023/06/05 04:00:43;;;;;;;1.65;0.80;;;11.80;99.90;;;;;;5078826;28;20052;-83
2023/06/05 04:03:10;;;;;;;1.67;0.90;;;11.60;99.90;;;;;;5092748;28;20040;-83
2023/06/05 04:05:37;;;;;;;1.95;0.80;;;11.60;99.90;;;;;;5092573;28;20480;-84
2023/06/05 04:08:03;;;;;;;2.20;0.90;;;11.60;99.90;;;;;;5060619;28;20489;-83
2023/06/05 04:10:29;;;;;;;3.13;1.00;;;11.60;99.90;;;;;;5054778;28;20078;-83
2023/06/05 04:12:55;;;;;;;1.20;0.90;;;11.80;99.90;;;;;;5072255;28;20049;-83
2023/06/05 04:15:22;;;;;;;1.55;0.90;;;11.70;99.90;;;;;;5081169;28;20123;-84
2023/06/05 04:17:48;;;;;;;1.95;0.82;;;11.60;99.90;;;;;;5074526;28;20033;-83
2023/06/05 04:20:14;;;;;;;1.35;0.77;;;11.70;99.90;;;;;;5072526;28;20051;-83
2023/06/05 04:22:41;;;;;;;3.25;0.98;;;11.80;99.90;;;;;;5071999;28;20036;-83
2023/06/05 04:25:08;;;;;;;1.40;0.68;;;11.70;99.90;;;;;;5072413;28;20029;-83
2023/06/05 04:27:33;;;;;;;1.67;0.90;;;11.70;99.90;;;;;;5072156;28;20044;-84
2023/06/05 04:29:59;;;;;;;2.35;1.10;;;11.70;99.90;;;;;;5072481;28;20118;-83
2023/06/05 04:32:25;;;;;;;2.22;1.00;;;11.80;99.90;;;;;;5071954;28;20044;-84
2023/06/05 04:34:52;;;;;;;2.58;0.73;;;11.80;99.90;;;;;;5090132;28;20536;-83
2023/06/05 04:37:18;;;;;;;1.08;0.77;;;11.80;99.90;;;;;;5092372;28;20052;-84
2023/06/05 04:39:43;;;;;;;1.25;0.73;;;11.80;99.90;;;;;;5092337;28;20273;-84
2023/06/05 04:42:09;;;;;;;1.05;0.80;;;11.90;99.90;;;;;;5095184;28;20048;-84
2023/06/05 04:44:35;;;;;;;1.20;0.95;;;11.90;99.90;;;;;;5096260;28;20036;-84
2023/06/05 04:47:01;;;;;;;1.17;0.80;;;11.90;99.90;;;;;;5096101;28;20481;-84
2023/06/05 04:49:28;;;;;;;1.38;0.80;;;11.90;99.90;;;;;;5090757;28;20051;-84
2023/06/05 04:51:56;;;;;;;1.30;0.70;;;11.90;99.90;;;;;;5058247;28;20047;-84
2023/06/05 04:54:22;;;;;;;1.10;0.70;;;12.00;99.90;;;;;;5057758;28;20053;-83
2023/06/05 04:56:49;;;;;;;4.10;0.88;;;12.30;99.90;;;;;;5075861;28;20493;-84
2023/06/05 04:59:15;;;;;;;1.65;0.90;;;12.00;99.90;;;;;;5075585;28;20105;-84
2023/06/05 05:01:41;;;;;;;2.13;0.90;;;12.10;99.90;;;;;;5075661;28;20435;-82
2023/06/05 05:04:06;;;;;;;1.83;1.10;;;12.00;99.90;;;;;;5075554;28;20054;-82
2023/06/05 05:06:33;;;;;;;2.08;1.02;;;12.10;99.90;;;;;;5085749;28;20118;-83
2023/06/05 05:08:59;;;;;;;2.35;0.90;;;12.20;99.90;;;;;;5077237;28;20037;-82
2023/06/05 05:11:26;;;;;;;1.08;0.80;;;12.40;99.90;;;;;;5075694;28;20047;-82
2023/06/05 05:13:51;;;;;;;1.50;0.90;;;12.10;99.90;;;;;;5075377;28;20127;-83
2023/06/05 05:16:17;;;;;;;2.75;0.98;;;12.30;99.90;;;;;;5075352;28;20072;-82
2023/06/05 05:18:44;;;;;;;1.98;0.70;;;12.30;99.90;;;;;;5079018;28;20044;-83
2023/06/05 05:21:10;;;;;;;2.15;0.90;;;12.30;99.90;;;;;;5095161;28;20089;-83
2023/06/05 05:23:36;;;;;;;3.85;0.90;;;12.30;99.90;;;;;;5095318;28;20048;-83
2023/06/05 05:26:03;;;;;;;2.50;1.10;;;12.40;99.90;;;;;;5095575;28;20051;-83
2023/06/05 05:28:28;;;;;;;1.40;0.70;;;12.20;99.90;;;;;;5093776;28;20467;-83
2023/06/05 05:30:57;;;;;;;0.75;0.60;;;12.40;99.90;;;;;;5077590;28;20134;-82
2023/06/05 05:33:23;;;;;;;2.15;0.85;;;12.50;99.90;;;;;;5095243;28;20050;-82
2023/06/05 05:35:50;;;;;;;2.10;0.70;;;12.50;99.90;;;;;;5095218;28;20411;-84
2023/06/05 05:38:16;;;;;;;0.95;0.52;;;12.60;99.90;;;;;;5094342;28;20071;-84
2023/06/05 05:40:41;;;;;;;1.33;0.70;;;12.60;99.90;;;;;;5076959;28;20134;-85
2023/06/05 05:43:08;;;;;;;1.10;0.60;;;12.70;99.90;;;;;;5088189;28;20119;-83
2023/06/05 05:45:33;;;;;;;1.70;0.98;;;12.70;99.90;;;;;;5074797;28;20038;-85
2023/06/05 05:47:59;;;;;;;1.23;0.75;;;12.70;99.90;;;;;;5074959;28;20115;-82
2023/06/05 05:50:25;;;;;;;1.30;0.70;;;12.70;99.90;;;;;;5074859;28;20086;-85
2023/06/05 05:52:53;;;;;;;0.90;0.60;;;12.80;99.90;;;;;;5073713;28;20054;-83
2023/06/05 05:55:18;;;;;;;2.30;0.80;;;12.70;99.90;;;;;;5094840;28;20052;-83
2023/06/05 05:57:44;;;;;;;1.92;0.70;;;12.70;99.90;;;;;;5093657;28;20081;-83
2023/06/05 06:00:12;;;;;;;1.85;0.70;;;12.70;99.90;;;;;;5075916;28;20055;-87
2023/06/05 06:02:38;;;;;;;0.77;0.52;;;12.70;99.90;;;;;;5084561;28;20048;-83
2023/06/05 06:05:05;;;;;;;0.82;0.60;;;12.80;99.90;;;;;;5074461;28;20044;-83
2023/06/05 06:07:31;;;;;;;0.93;0.60;;;12.70;99.90;;;;;;5074319;28;20065;-82
2023/06/05 06:09:58;;;;;;;0.85;0.63;;;12.80;99.90;;;;;;5056745;28;20041;-83
2023/06/05 06:12:24;;;;;;;1.30;0.70;;;12.90;99.90;;;;;;5056263;28;20048;-82
2023/06/05 06:14:51;;;;;;;0.80;0.50;;;13.00;99.90;;;;;;5074151;28;20051;-84
2023/06/05 06:17:17;;;;;;;2.13;0.85;;;13.10;99.90;;;;;;5073997;28;20481;-83
2023/06/05 06:19:43;;;;;;;2.53;0.80;;;13.00;99.90;;;;;;5056633;28;20431;-81
2023/06/05 06:22:11;;;;;;;2.58;0.70;;;13.10;99.90;;;;;;5081596;28;20039;-83
2023/06/05 06:24:42;;;;;;;0.70;0.60;;;13.20;99.90;;;;;;5076143;28;20464;-82
2023/06/05 06:27:10;;;;;;;2.95;0.70;;;13.30;99.90;;;;;;5075568;28;20045;-81
2023/06/05 06:29:46;;;;;;;1.42;0.70;;;13.40;99.90;;;;;;5061898;28;20050;-83
2023/06/05 06:32:11;;;;;;;1.58;0.80;;;13.50;99.90;;;;;;5075978;28;20044;-80
2023/06/05 06:34:38;;;;;;;1.20;0.80;;;13.60;99.90;;;;;;5063229;28;20090;-81
2023/06/05 06:37:04;;;;;;;1.15;0.70;;;13.70;99.90;;;;;;5073785;28;20128;-83
2023/06/05 06:39:29;;;;;;;2.45;1.00;;;13.70;99.90;;;;;;5073705;28;20115;-81
2023/06/05 06:41:57;;;;;;;2.67;0.98;;;13.70;99.90;;;;;;5055767;28;20045;-82
2023/06/05 06:44:23;;;;;;;1.65;0.80;;;13.80;99.90;;;;;;5064616;28;20122;-82
2023/06/05 06:46:48;;;;;;;1.65;0.90;;;13.80;99.90;;;;;;5089686;28;20146;-82
2023/06/05 06:49:14;;;;;;;2.22;0.70;;;14.00;99.90;;;;;;5075849;28;20483;-81
2023/06/05 06:51:40;;;;;;;1.73;0.70;;;14.00;99.90;;;;;;5075667;28;20054;-82
2023/06/05 06:54:06;;;;;;;2.03;0.80;;;14.10;99.90;;;;;;5093572;28;20044;-82
2023/06/05 06:56:31;;;;;;;2.03;0.93;;;14.10;99.90;;;;;;5075161;28;20044;-83
2023/06/05 06:58:57;;;;;;;11.23;1.33;;;14.10;99.90;;;;;;5093694;28;20044;-83
2023/06/05 07:01:24;;;;;;;1.02;0.73;;;14.20;99.90;;;;;;5093774;28;20040;-83
2023/06/05 07:03:50;;;;;;;0.90;0.73;;;14.40;99.90;;;;;;5074996;28;20067;-82
2023/06/05 07:06:16;;;;;;;1.67;1.00;;;14.50;99.90;;;;;;5082479;28;20412;-82
2023/06/05 07:08:41;;;;;;;6.78;0.85;;;14.60;99.90;;;;;;5070559;28;20055;-82
2023/06/05 07:11:07;;;;;;;1.58;0.90;;;14.70;99.90;;;;;;5093604;28;20487;-83
2023/06/05 07:13:33;;;;;;;1.67;0.80;;;14.60;99.90;;;;;;5093404;28;20044;-81
2023/06/05 07:15:58;;;;;;;1.10;0.80;;;14.50;99.90;;;;;;5079570;28;20049;-83
2023/06/05 07:18:24;;;;;;;1.48;1.00;;;14.50;99.90;;;;;;5072898;28;20127;-81
2023/06/05 07:20:50;;;;;;;1.25;0.73;;;14.60;99.90;;;;;;5089196;28;20075;-81
2023/06/05 07:23:17;;;;;;;2.35;0.98;;;14.50;99.90;;;;;;5087722;28;20082;-81
2023/06/05 07:25:43;;;;;;;3.13;0.98;;;14.40;99.90;;;;;;5038699;28;20047;-81
2023/06/05 07:28:11;;;;;;;2.65;0.80;;;14.50;99.90;;;;;;5055005;28;20481;-83
2023/06/05 07:30:37;;;;;;;2.65;0.80;;;14.70;99.90;;;;;;5079908;28;20119;-83
2023/06/05 07:33:03;;;;;;;2.58;0.90;;;14.80;99.90;;;;;;5074309;28;20079;-81
2023/06/05 07:35:29;;;;;;;2.65;1.08;;;14.90;99.90;;;;;;5075087;28;20055;-81
2023/06/05 07:37:55;;;;;;;1.85;1.17;;;15.00;99.90;;;;;;5093029;28;20044;-82
2023/06/05 07:40:20;;;;;;;1.38;1.00;;;15.20;99.90;;;;;;5092901;28;20040;-80
2023/06/05 07:42:46;;;;;;;1.85;0.80;;;15.10;99.90;;;;;;5074883;28;20131;-81
2023/06/05 07:45:12;;;;;;;2.25;1.20;;;15.10;99.90;;;;;;5093051;28;20032;-81
2023/06/05 07:47:38;;;;;;;1.20;0.80;;;15.00;99.90;;;;;;5074782;28;20047;-80
2023/06/05 07:50:05;;;;;;;1.23;0.77;;;14.90;99.90;;;;;;5092795;28;20406;-80
2023/06/05 07:52:31;;;;;;;1.17;0.80;;;14.90;99.90;;;;;;5092976;28;20048;-82
2023/06/05 07:54:57;;;;;;;3.28;0.88;;;15.10;99.90;;;;;;5074704;28;20093;-81
2023/06/05 07:57:27;;;;;;;1.70;0.95;;;15.20;99.90;;;;;;5057216;28;20048;-82
2023/06/05 07:59:54;;;;;;;1.15;0.60;;;15.30;99.90;;;;;;5072333;28;20044;-81
2023/06/05 08:02:20;;;;;;;1.25;0.90;;;15.20;99.90;;;;;;5054758;28;20044;-81
2023/06/05 08:04:46;;;;;;;1.00;0.60;;;15.20;99.90;;;;;;5054785;28;20058;-81
2023/06/05 08:07:12;;;;;;;1.15;0.70;;;15.20;99.90;;;;;;5071611;28;20166;-82
2023/06/05 08:09:39;;;;;;;1.15;0.70;;;15.20;99.90;;;;;;5092715;28;20513;-82
2023/06/05 08:12:05;;;;;;;1.50;0.95;;;15.30;99.90;;;;;;5092567;28;20564;-82
2023/06/05 08:14:31;;;;;;;4.55;0.77;;;15.20;99.90;;;;;;5092741;28;20135;-82
2023/06/05 08:16:57;;;;;;;2.58;0.90;;;15.10;99.90;;;;;;5077217;28;20131;-83
2023/06/05 08:19:23;;;;;;;1.85;0.90;;;15.40;99.90;;;;;;5096748;28;20478;-81
2023/06/05 08:21:54;;;;;;;1.30;0.90;;;15.40;99.90;;;;;;5078609;28;20127;-81
2023/06/05 08:24:20;;;;;;;1.52;0.90;;;15.60;99.90;;;;;;5096621;28;20044;-81
2023/06/05 08:26:46;;;;;;;3.15;1.20;;;15.90;99.90;;;;;;5097017;28;20044;-81
2023/06/05 08:29:12;;;;;;;3.92;1.10;;;16.00;99.90;;;;;;5078477;28;20055;-81
2023/06/05 08:31:38;;;;;;;0.90;0.70;;;16.00;99.90;;;;;;5078650;28;20477;-82
2023/06/05 08:34:05;;;;;;;1.83;1.38;;;16.00;99.90;;;;;;5074858;28;20071;-81
2023/06/05 08:36:32;;;;;;;1.75;0.90;;;16.10;99.90;;;;;;5075956;28;20123;-81
2023/06/05 08:38:58;;;;;;;1.23;0.90;;;16.50;99.90;;;;;;5058509;28;20400;-82
2023/06/05 08:41:25;;;;;;;1.50;0.80;;;16.60;99.90;;;;;;5058102;28;20044;-81
2023/06/05 08:43:51;;;;;;;1.20;0.80;;;16.30;99.90;;;;;;5076127;28;20055;-81
2023/06/05 08:46:17;;;;;;;1.58;0.75;;;16.40;99.90;;;;;;5085651;28;20459;-81
2023/06/05 08:48:47;;;;;;;2.47;1.02;;;16.70;99.90;;;;;;5078394;28;20063;-83
2023/06/05 08:51:15;;;;;;;1.33;0.85;;;16.40;99.90;;;;;;5096417;28;20128;-80
2023/06/05 08:53:46;;;;;;;1.60;0.90;;;16.30;99.90;;;;;;5088330;28;20115;-83
2023/06/05 08:56:13;;;;;;;2.05;1.10;;;16.50;99.90;;;;;;5075885;28;20153;-83
2023/06/05 08:58:39;;;;;;;1.10;0.80;;;16.70;99.90;;;;;;5058044;28;20052;-82
2023/06/05 09:01:05;;;;;;;1.13;0.75;;;17.10;99.90;;;;;;5075936;28;20046;-82
2023/06/05 09:03:33;;;;;;;1.00;0.65;;;17.20;99.90;;;;;;5075952;28;20119;-83
2023/06/05 09:05:59;;;;;;;1.85;0.90;;;17.60;99.90;;;;;;5075627;28;20037;-87
2023/06/05 09:08:33;;;;;;;2.08;0.80;;;17.70;99.90;;;;;;5057590;28;20443;-85
2023/06/05 09:11:25;;;;;;;1.38;0.73;;;17.70;99.90;;;;;;5058184;28;20056;-84
2023/06/05 09:13:51;;;;;;;2.33;1.00;;;18.00;99.90;;;;;;5075422;28;20478;-87
2023/06/05 09:16:21;;;;;;;3.45;0.77;;;17.70;99.90;;;;;;5040844;28;20083;-82
2023/06/05 09:18:57;;;;;;;1.85;0.90;;;17.70;99.90;;;;;;5075333;28;20036;-83
2023/06/05 09:21:29;;;;;;;1.30;0.90;;;18.00;99.90;;;;;;5075455;28;20048;-87
2023/06/05 09:24:09;;;;;;;1.95;0.70;;;17.90;99.90;;;;;;5075504;28;20051;-86
2023/06/05 09:26:46;;;;;;;1.40;0.63;;;17.70;99.90;;;;;;5075278;28;20048;-85
2023/06/05 09:29:11;;;;;;;2.45;0.80;;;17.40;99.90;;;;;;5073888;28;20048;-84
2023/06/05 09:31:42;;;;;;;1.45;0.70;;;17.60;99.90;;;;;;5075384;28;20139;-84
2023/06/05 09:34:07;;;;;;;3.10;1.27;;;17.70;99.90;;;;;;5080141;28;20450;-86
2023/06/05 09:36:34;;;;;;;1.77;0.73;;;17.70;99.90;;;;;;5095520;28;20040;-82
2023/06/05 09:39:14;;;;;;;1.27;0.80;;;17.90;99.90;;;;;;5088317;28;20095;-83
2023/06/05 09:41:44;;;;;;;1.05;0.65;;;18.00;99.90;;;;;;5056292;28;20488;-85
2023/06/05 09:44:11;;;;;;;1.50;0.70;;;18.20;99.90;;;;;;5086716;28;20537;-84
2023/06/05 09:46:59;;;;;;;1.55;0.60;;;18.10;99.90;;;;;;5056760;28;20060;-84
2023/06/05 09:49:39;;;;;;;1.80;0.70;;;18.30;99.90;;;;;;5074766;28;20547;-82
2023/06/05 09:52:07;;;;;;;1.70;0.77;;;18.20;99.90;;;;;;5074997;28;20049;-82
2023/06/05 09:54:37;;;;;;;1.88;0.70;;;18.30;99.90;;;;;;5056648;28;20060;-81
2023/06/05 09:57:04;;;;;;;1.15;0.73;;;18.30;99.90;;;;;;5057427;28;20040;-87
2023/06/05 09:59:32;;;;;;;3.28;0.80;;;18.20;99.90;;;;;;5079188;28;20373;-82
2023/06/05 10:02:05;;;;;;;4.80;0.70;;;18.10;99.90;;;;;;5093773;28;20042;-83
2023/06/05 10:04:42;;;;;;;2.05;0.70;;;18.40;99.90;;;;;;5075730;28;20048;-81
2023/06/05 10:07:08;;;;;;;2.17;0.80;;;18.30;99.90;;;;;;5056309;28;20841;-86
2023/06/05 10:09:35;;;;;;;1.67;0.88;;;18.50;99.90;;;;;;5043037;28;20060;-85
2023/06/05 10:12:03;;;;;;;1.13;0.57;;;18.10;99.90;;;;;;5076100;28;20043;-85
2023/06/05 10:14:29;;;;;;;1.30;0.70;;;18.30;99.90;;;;;;5084693;28;20048;-86
2023/06/05 10:16:57;;;;;;;1.05;0.65;;;18.20;99.90;;;;;;5071891;28;20036;-85
2023/06/05 10:19:24;;;;;;;1.05;0.60;;;18.30;99.90;;;;;;5074173;28;20067;-83
2023/06/05 10:21:50;;;;;;;2.05;0.70;;;18.50;99.90;;;;;;5069028;28;20040;-86
2023/06/05 10:24:34;;;;;;;1.10;0.63;;;18.30;99.90;;;;;;5094138;28;20047;-87
2023/06/05 10:27:12;;;;;;;2.25;0.65;;;18.50;99.90;;;;;;5093904;28;20055;-87
2023/06/05 10:29:47;;;;;;;0.90;0.60;;;18.70;99.90;;;;;;5091795;28;20040;-83
2023/06/05 10:32:31;;;;;;;1.80;0.60;;;18.70;99.90;;;;;;5093819;28;20051;-84
2023/06/05 10:35:12;;;;;;;1.30;0.60;;;19.00;99.90;;;;;;5095169;28;20069;-83
2023/06/05 10:38:03;;;;;;;2.40;0.55;;;19.10;99.90;;;;;;5076878;28;20043;-86
2023/06/05 10:40:29;;;;;;;0.95;0.60;;;19.20;99.90;;;;;;5077227;28;20044;-84
2023/06/05 10:46:51;;;;;;;1.23;0.70;;;19.30;99.90;;;;;;5094297;28;20035;-79
2023/06/05 10:49:19;;;;;;;1.20;0.65;;;19.30;99.90;;;;;;5094216;28;20493;-84
2023/06/05 10:51:53;;;;;;;2.95;0.80;;;19.20;99.90;;;;;;5082958;28;20044;-83
2023/06/05 10:54:21;;;;;;;1.98;0.90;;;19.40;99.90;;;;;;5073845;28;20040;-80
2023/06/05 10:56:59;;;;;;;1.27;0.60;;;19.20;99.90;;;;;;5055811;28;20080;-80
2023/06/05 10:59:33;;;;;;;1.83;0.80;;;19.30;99.90;;;;;;5055635;28;20202;-80
2023/06/05 11:02:16;;;;;;;;;;;19.40;99.90;;;;;;5056100;28;20044;-82
2023/06/05 11:04:48;;;;;;;1.38;0.63;;;19.50;99.90;;;;;;5073247;28;20343;-81
2023/06/05 11:07:28;;;;;;;1.40;0.60;;;19.40;99.90;;;;;;5055580;28;20087;-80
2023/06/05 11:12:40;;;;;;;0.80;0.63;;;19.80;99.90;;;;;;5083232;28;20052;-82
2023/06/05 11:15:08;;;;;;;1.77;0.75;;;20.00;99.90;;;;;;5073047;28;20134;-85
2023/06/05 11:17:36;;;;;;;1.10;0.70;;;19.90;99.90;;;;;;5090884;28;20048;-81
2023/06/05 11:20:10;;;;;;;1.60;0.70;;;20.00;99.90;;;;;;5059748;28;20059;-79
2023/06/05 11:23:05;;;;;;;1.08;0.60;;;19.90;99.90;;;;;;5093483;28;20054;-79
2023/06/05 11:25:32;;;;;;;0.75;0.60;;;19.70;99.90;;;;;;5091735;28;20135;-82
2023/06/05 11:28:01;;;;;;;1.23;0.50;;;19.70;99.90;;;;;;5075576;28;20488;-80
2023/06/05 11:30:33;;;;;;;1.60;0.70;;;20.10;99.90;;;;;;5093527;28;20067;-80
2023/06/05 11:33:09;;;;;;;1.00;0.50;;;20.00;99.90;;;;;;5093440;28;20388;-80
2023/06/05 11:35:35;;;;;;;1.30;0.70;;;20.20;99.90;;;;;;5093790;28;20043;-80
2023/06/05 11:38:08;;;;;;;1.60;0.70;;;19.90;99.90;;;;;;5093812;28;20036;-79
2023/06/05 11:40:34;;;;;;;0.80;0.50;;;20.00;99.90;;;;;;5075105;28;20046;-79
2023/06/05 11:43:05;;;;;;;0.95;0.70;;;19.90;99.90;;;;;;5093558;28;20044;-81
2023/06/05 11:45:32;;;;;;;1.48;0.73;;;19.90;99.90;;;;;;5093404;28;20404;-79
2023/06/05 11:48:09;;;;;;;1.60;0.70;;;19.70;99.90;;;;;;5093558;28;20078;-81
2023/06/05 11:50:35;;;;;;;0.88;0.70;;;19.80;99.90;;;;;;5092694;28;20040;-80
2023/06/05 11:53:05;;;;;;;2.75;0.82;;;19.90;99.90;;;;;;5093832;28;20444;-80
2023/06/05 11:55:55;;;;;;;1.20;0.70;;;20.00;99.90;;;;;;5058588;28;20048;-79
2023/06/05 11:58:31;;;;;;;1.50;0.73;;;19.80;99.90;;;;;;5094481;28;20075;-81
2023/06/05 12:01:31;;;;;;;1.70;0.85;;;19.90;99.90;;;;;;5095000;28;20036;-85
2023/06/05 12:04:05;;;;;;;3.88;0.68;;;20.00;99.90;;;;;;5010652;28;20054;-83
2023/06/05 12:06:32;;;;;;;2.90;0.75;;;20.10;99.90;;;;;;5010686;28;20062;-85
2023/06/05 12:09:11;;;;;;;1.58;0.80;;;20.20;99.90;;;;;;5010165;28;20125;-83
2023/06/05 12:11:38;;;;;;;1.70;0.70;;;20.10;99.90;;;;;;5010710;28;20056;-83
2023/06/05 12:14:04;;;;;;;2.60;0.80;;;20.30;99.90;;;;;;4993761;28;20058;-84
2023/06/05 12:16:37;;;;;;;1.75;0.80;;;20.30;99.90;;;;;;5010739;28;20054;-83
2023/06/05 12:19:14;;;;;;;3.95;0.98;;;20.20;99.90;;;;;;5010526;28;20121;-84
2023/06/05 12:21:40;;;;;;;1.42;0.90;;;19.90;99.90;;;;;;5010629;28;20054;-84
2023/06/05 12:24:06;;;;;;;0.82;0.70;;;20.00;99.90;;;;;;5010437;28;20210;-83
2023/06/05 12:26:53;;;;;;;1.30;0.80;;;20.20;99.90;;;;;;4980457;28;20066;-83
2023/06/05 12:29:21;;;;;;;2.25;0.85;;;20.30;99.90;;;;;;4982506;28;20053;-84
2023/06/05 12:31:47;;;;;;;1.55;1.00;;;20.30;99.90;;;;;;5010421;28;20077;-84
2023/06/05 12:34:15;;;;;;;1.60;1.05;;;20.50;99.90;;;;;;5005568;28;20077;-83
2023/06/05 12:36:42;;;;;;;1.63;1.05;;;20.70;99.90;;;;;;5010178;28;20481;-84
2023/06/05 12:39:12;;;;;;;3.47;0.90;;;19.90;99.90;;;;;;5022921;28;20056;-84
2023/06/05 12:41:39;;;;;;;2.03;1.00;;;20.10;99.90;;;;;;5074570;28;20036;-84
2023/06/05 12:44:06;;;;;;;2.33;1.15;;;20.30;99.90;;;;;;5092325;28;20048;-84
2023/06/05 12:46:32;;;;;;;2.88;1.17;;;20.50;99.90;;;;;;5087664;28;20052;-84
2023/06/05 12:48:59;;;;;;;1.90;1.00;;;20.10;99.90;;;;;;5074233;28;20044;-85
2023/06/05 12:51:26;;;;;;;1.77;1.02;;;20.20;99.90;;;;;;5092247;28;20079;-83
2023/06/05 12:53:55;;;;;;;1.67;1.13;;;20.20;99.90;;;;;;5067591;28;20053;-85
2023/06/05 12:56:26;;;;;;;4.82;1.40;;;20.30;99.90;;;;;;5077606;28;20489;-83
2023/06/05 12:58:56;;;;;;;1.27;0.90;;;20.00;99.90;;;;;;5072105;28;20052;-85
2023/06/05 13:01:24;;;;;;;2.05;1.23;;;20.30;99.90;;;;;;5061430;28;20393;-84